createdAt,value
2018-05-18T00:01:45.505Z,58.58
2018-05-18T00:04:18.064Z,58.88
2018-05-18T00:06:50.602Z,59.19
2018-05-18T00:09:23.138Z,59.38
2018-05-18T00:11:55.645Z,59.33
2018-05-18T00:14:28.170Z,59.13
2018-05-18T00:17:00.694Z,59.29
2018-05-18T00:19:33.222Z,59.28
2018-05-18T00:22:06.258Z,59.21
2018-05-18T00:24:38.839Z,59.51
2018-05-18T00:27:11.372Z,60.17
2018-05-18T00:29:43.909Z,59.72
2018-05-18T00:32:16.433Z,59.76
2018-05-18T00:34:48.985Z,59.62
2018-05-18T00:37:21.515Z,59.83
2018-05-18T00:39:54.063Z,60.02
2018-05-18T00:42:26.565Z,59.90
2018-05-18T00:44:59.169Z,59.97
2018-05-18T00:47:31.675Z,60.11
2018-05-18T00:50:04.224Z,59.95
2018-05-18T00:52:36.770Z,59.72
2018-05-18T00:55:21.048Z,59.53
2018-05-18T00:57:53.556Z,59.42
2018-05-18T01:00:26.098Z,59.71
2018-05-18T01:02:58.624Z,60.53
2018-05-18T01:05:31.154Z,60.24
2018-05-18T01:08:03.668Z,60.16
2018-05-18T01:10:36.223Z,60.52
2018-05-18T01:13:08.788Z,60.44
2018-05-18T01:15:41.531Z,61.45
2018-05-18T01:18:14.052Z,60.81
2018-05-18T01:20:46.593Z,60.99
2018-05-18T01:23:19.115Z,60.57
2018-05-18T01:25:52.067Z,60.53
2018-05-18T01:28:24.587Z,60.60
2018-05-18T01:30:57.118Z,60.69
2018-05-18T01:33:29.634Z,61.28
2018-05-18T01:36:02.165Z,61.12
2018-05-18T01:38:34.693Z,60.77
2018-05-18T01:41:07.969Z,61.07
2018-05-18T01:43:40.516Z,61.10
2018-05-18T01:46:13.029Z,62.10
2018-05-18T01:48:45.575Z,62.00
2018-05-18T01:51:18.082Z,62.02
2018-05-18T01:53:50.624Z,62.19
2018-05-18T01:56:23.143Z,61.84
2018-05-18T01:58:55.668Z,61.75
2018-05-18T02:01:28.179Z,61.99
2018-05-18T02:04:00.706Z,61.83
2018-05-18T02:06:33.229Z,61.77
2018-05-18T02:09:06.649Z,62.13
2018-05-18T02:11:39.213Z,61.93
2018-05-18T02:14:11.757Z,62.28
2018-05-18T02:16:44.316Z,62.20
2018-05-18T02:19:16.871Z,62.34
2018-05-18T02:21:49.372Z,62.31
2018-05-18T02:24:21.900Z,62.68
2018-05-18T02:26:54.415Z,62.85
2018-05-18T02:29:26.952Z,63.47
2018-05-18T02:31:59.467Z,62.77
2018-05-18T02:34:31.997Z,62.93
2018-05-18T02:37:04.522Z,63.03
2018-05-18T02:39:37.512Z,62.94
2018-05-18T02:42:10.043Z,63.19
2018-05-18T02:44:42.602Z,62.89
2018-05-18T02:47:20.684Z,63.13
2018-05-18T02:49:53.235Z,62.35
2018-05-18T02:52:25.810Z,62.51
2018-05-18T02:54:58.307Z,62.27
2018-05-18T02:57:30.818Z,62.09
2018-05-18T03:00:03.352Z,61.99
2018-05-18T03:02:36.859Z,61.82
2018-05-18T03:05:09.415Z,61.67
2018-05-18T03:07:42.173Z,61.63
2018-05-18T03:10:14.719Z,61.86
2018-05-18T03:12:47.223Z,61.66
2018-05-18T03:15:19.776Z,61.61
2018-05-18T03:17:52.293Z,61.96
2018-05-18T03:20:24.833Z,61.70
2018-05-18T03:22:57.348Z,61.30
2018-05-18T03:25:29.890Z,61.22
2018-05-18T03:28:02.412Z,61.37
2018-05-18T03:30:35.648Z,60.95
2018-05-18T03:33:08.398Z,61.27
2018-05-18T03:35:40.985Z,61.33
2018-05-18T03:38:13.513Z,60.84
2018-05-18T03:40:46.073Z,60.77
2018-05-18T03:43:18.586Z,60.95
2018-05-18T03:45:51.127Z,60.50
2018-05-18T03:48:23.633Z,60.68
2018-05-18T03:50:56.178Z,60.71
2018-05-18T03:53:28.705Z,60.47
2018-05-18T03:56:01.240Z,60.21
2018-05-18T03:58:33.758Z,60.27
2018-05-18T04:01:06.673Z,60.25
2018-05-18T04:03:51.263Z,60.13
2018-05-18T04:06:37.001Z,60.07
2018-05-18T04:09:09.546Z,60.14
2018-05-18T04:11:42.087Z,60.07
2018-05-18T04:14:14.625Z,59.99
2018-05-18T04:16:47.170Z,59.96
2018-05-18T04:19:19.684Z,60.30
2018-05-18T04:21:52.212Z,60.35
2018-05-18T04:24:24.723Z,60.12
2018-05-18T04:26:57.259Z,60.16
2018-05-18T04:29:29.778Z,59.77
2018-05-18T04:32:02.328Z,59.57
2018-05-18T04:34:36.716Z,59.60
2018-05-18T04:37:09.248Z,59.78
2018-05-18T04:39:41.825Z,59.83
2018-05-18T04:42:14.369Z,59.82
2018-05-18T04:44:46.958Z,59.89
2018-05-18T04:47:19.494Z,59.84
2018-05-18T04:49:51.998Z,59.82
2018-05-18T04:52:24.546Z,59.70
2018-05-18T04:54:57.110Z,59.69
2018-05-18T04:57:29.611Z,59.65
2018-05-18T05:00:02.145Z,59.63
2018-05-18T05:02:34.650Z,59.47
2018-05-18T05:05:07.870Z,59.81
2018-05-18T05:07:40.388Z,59.70
2018-05-18T05:10:12.932Z,59.36
2018-05-18T05:12:45.459Z,59.58
2018-05-18T05:15:17.984Z,59.51
2018-05-18T05:17:50.540Z,59.43
2018-05-18T05:20:23.045Z,59.16
2018-05-18T05:22:55.556Z,59.21
2018-05-18T05:25:28.084Z,59.42
2018-05-18T05:28:00.606Z,59.25
2018-05-18T05:30:33.225Z,59.06
2018-05-18T05:33:06.566Z,59.19
2018-05-18T05:35:39.103Z,59.22
2018-05-18T05:38:11.654Z,59.40
2018-05-18T05:40:44.297Z,59.24
2018-05-18T05:43:16.869Z,59.04
2018-05-18T05:45:49.408Z,59.03
2018-05-18T05:48:21.933Z,58.98
2018-05-18T05:50:54.449Z,58.79
2018-05-18T05:53:26.963Z,58.69
2018-05-18T05:55:59.507Z,59.11
2018-05-18T05:58:32.107Z,58.82
2018-05-18T06:01:04.650Z,58.51
2018-05-18T06:03:37.486Z,58.64
2018-05-18T06:06:10.075Z,58.72
2018-05-18T06:08:42.628Z,58.87
2018-05-18T06:11:15.282Z,58.78
2018-05-18T06:16:26.774Z,58.38
2018-05-18T06:18:59.287Z,58.74
2018-05-18T06:21:31.820Z,59.03
2018-05-18T06:24:04.338Z,58.78
2018-05-18T06:26:37.520Z,58.76
2018-05-18T06:29:10.043Z,58.44
2018-05-18T06:31:42.603Z,58.51
2018-05-18T06:34:15.564Z,58.55
2018-05-18T06:36:48.085Z,58.28
2018-05-18T06:39:20.593Z,58.21
2018-05-18T06:41:53.117Z,58.13
2018-05-18T06:44:25.625Z,58.09
2018-05-18T06:46:58.178Z,58.28
2018-05-18T06:49:30.714Z,58.50
2018-05-18T06:52:03.233Z,58.68
2018-05-18T06:54:36.031Z,58.38
2018-05-18T06:57:08.597Z,58.31
2018-05-18T06:59:41.116Z,58.10
2018-05-18T07:02:13.677Z,58.14
2018-05-18T07:04:46.222Z,57.74
2018-05-18T07:07:18.745Z,57.70
2018-05-18T07:09:51.255Z,57.81
2018-05-18T07:12:23.786Z,57.75
2018-05-18T07:14:56.293Z,57.58
2018-05-18T07:17:28.833Z,57.45
2018-05-18T07:20:01.356Z,57.02
2018-05-18T07:22:33.886Z,57.39
2018-05-18T07:25:08.005Z,57.33
2018-05-18T07:27:40.563Z,57.12
2018-05-18T07:30:13.098Z,56.85
2018-05-18T07:32:45.658Z,56.76
2018-05-18T07:35:18.193Z,56.16
2018-05-18T07:37:50.725Z,56.74
2018-05-18T07:40:23.241Z,56.89
2018-05-18T07:42:55.795Z,56.67
2018-05-18T07:45:28.308Z,56.60
2018-05-18T07:48:00.838Z,56.13
2018-05-18T07:50:33.352Z,56.48
2018-05-18T07:53:07.091Z,56.16
2018-05-18T07:55:39.621Z,55.96
2018-05-18T07:58:12.266Z,55.60
2018-05-18T08:00:44.971Z,55.25
2018-05-18T08:03:17.520Z,55.15
2018-05-18T08:05:50.133Z,54.95
2018-05-18T08:08:22.649Z,55.01
2018-05-18T08:10:55.179Z,54.84
2018-05-18T08:13:27.689Z,55.04
2018-05-18T08:16:00.363Z,55.05
2018-05-18T08:18:32.888Z,55.16
2018-05-18T08:21:06.913Z,55.18
2018-05-18T08:23:41.389Z,54.70
2018-05-18T08:26:13.933Z,54.47
2018-05-18T08:28:58.242Z,54.34
2018-05-18T08:31:30.777Z,54.11
2018-05-18T08:34:03.371Z,54.18
2018-05-18T08:36:36.179Z,54.39
2018-05-18T08:39:08.903Z,54.02
2018-05-18T08:41:41.392Z,54.07
2018-05-18T08:44:13.897Z,53.71
2018-05-18T08:46:46.430Z,53.52
2018-05-18T08:49:18.936Z,53.57
2018-05-18T08:51:51.470Z,53.26
2018-05-18T08:54:23.984Z,53.42
2018-05-18T08:56:56.530Z,53.71
2018-05-18T08:59:29.037Z,53.66
2018-05-18T09:02:01.607Z,53.26
2018-05-18T09:04:34.132Z,53.44
2018-05-18T09:07:06.814Z,53.72
2018-05-18T09:09:39.343Z,53.47
2018-05-18T09:12:11.889Z,53.82
2018-05-18T09:14:44.408Z,53.51
2018-05-18T09:17:16.941Z,53.25
2018-05-18T09:19:49.461Z,52.96
2018-05-18T09:22:21.990Z,53.54
2018-05-18T09:24:54.512Z,52.98
2018-05-18T09:27:27.053Z,52.93
2018-05-18T09:29:59.574Z,53.26
2018-05-18T09:32:32.092Z,53.61
2018-05-18T09:35:04.648Z,53.69
2018-05-18T09:37:37.425Z,53.70
2018-05-18T09:40:10.259Z,53.56
2018-05-18T09:42:42.783Z,52.85
2018-05-18T09:45:15.371Z,52.99
2018-05-18T09:47:47.835Z,52.50
2018-05-18T09:50:20.346Z,52.76
2018-05-18T09:52:52.877Z,52.55
2018-05-18T09:55:25.440Z,53.04
2018-05-18T09:57:57.936Z,52.69
2018-05-18T10:00:30.456Z,52.42
2018-05-18T10:03:02.980Z,51.81
2018-05-18T10:05:35.805Z,52.15
2018-05-18T10:08:08.377Z,52.28
2018-05-18T10:10:40.892Z,52.40
2018-05-18T10:13:13.425Z,51.81
2018-05-18T10:15:45.934Z,52.52
2018-05-18T10:18:18.541Z,51.16
2018-05-18T10:20:50.997Z,52.04
2018-05-18T10:23:23.527Z,51.62
2018-05-18T10:25:56.040Z,51.27
2018-05-18T10:28:28.568Z,51.77
2018-05-18T10:31:01.095Z,50.94
2018-05-18T10:33:33.636Z,51.70
2018-05-18T10:36:06.180Z,51.10
2018-05-18T10:38:38.727Z,50.92
2018-05-18T10:41:11.252Z,50.52
2018-05-18T10:43:43.790Z,49.64
2018-05-18T10:46:16.298Z,49.61
2018-05-18T10:48:48.828Z,50.60
2018-05-18T10:51:21.339Z,49.61
2018-05-18T10:53:53.870Z,50.23
2018-05-18T10:56:26.381Z,50.04
2018-05-18T10:58:58.923Z,50.07
2018-05-18T11:01:31.447Z,49.86
2018-05-18T11:04:03.971Z,49.95
2018-05-18T11:06:36.597Z,50.13
2018-05-18T11:09:09.238Z,49.77
2018-05-18T11:11:42.083Z,49.99
2018-05-18T11:14:14.640Z,50.27
2018-05-18T11:16:47.095Z,50.20
2018-05-18T11:19:19.625Z,50.28
2018-05-18T11:21:52.138Z,49.73
2018-05-18T11:24:24.675Z,49.87
2018-05-18T11:26:57.225Z,49.93
2018-05-18T11:29:29.749Z,49.60
2018-05-18T11:32:02.280Z,48.87
2018-05-18T11:34:34.820Z,49.38
2018-05-18T11:37:07.466Z,49.73
2018-05-18T11:39:40.005Z,48.66
2018-05-18T11:42:12.545Z,49.06
2018-05-18T11:44:45.095Z,49.42
2018-05-18T11:47:17.687Z,48.51
2018-05-18T11:49:50.196Z,48.50
2018-05-18T11:52:22.732Z,47.93
2018-05-18T11:54:55.249Z,48.42
2018-05-18T11:57:27.969Z,48.36
2018-05-18T12:00:00.544Z,48.13
2018-05-18T12:02:33.318Z,47.67
2018-05-18T12:05:06.577Z,47.94
2018-05-18T12:07:39.200Z,47.92
2018-05-18T12:10:11.857Z,47.76
2018-05-18T12:12:44.395Z,47.67
2018-05-18T12:15:16.963Z,47.48
2018-05-18T12:17:49.550Z,46.97
2018-05-18T12:20:22.082Z,47.70
2018-05-18T12:22:54.613Z,47.77
2018-05-18T12:25:27.122Z,47.88
2018-05-18T12:27:59.649Z,47.92
2018-05-18T12:30:32.531Z,47.91
2018-05-18T12:33:05.189Z,47.77
2018-05-18T12:35:38.013Z,48.36
2018-05-18T12:38:10.743Z,48.61
2018-05-18T12:40:43.219Z,48.66
2018-05-18T12:43:15.751Z,48.43
2018-05-18T12:45:48.300Z,48.01
2018-05-18T12:48:20.825Z,48.36
2018-05-18T12:50:53.478Z,48.15
2018-05-18T12:53:26.007Z,48.52
2018-05-18T12:55:58.541Z,47.91
2018-05-18T12:58:31.065Z,47.62
2018-05-18T13:01:03.587Z,48.18
2018-05-18T13:03:36.159Z,48.35
2018-05-18T13:06:09.821Z,48.32
2018-05-18T13:08:42.883Z,47.96
2018-05-18T13:11:15.653Z,48.64
2018-05-18T13:13:48.243Z,48.54
2018-05-18T13:16:21.052Z,47.79
2018-05-18T13:18:53.634Z,47.79
2018-05-18T13:21:26.150Z,47.59
2018-05-18T13:23:58.677Z,48.56
2018-05-18T13:26:31.279Z,48.58
2018-05-18T13:29:03.826Z,48.39
2018-05-18T13:31:36.691Z,48.53
2018-05-18T13:34:09.220Z,48.82
2018-05-18T13:36:41.745Z,48.54
2018-05-18T13:39:14.298Z,49.40
2018-05-18T13:41:46.813Z,49.30
2018-05-18T13:44:19.376Z,49.18
2018-05-18T13:46:51.899Z,48.94
2018-05-18T13:49:25.060Z,48.53
2018-05-18T13:51:57.597Z,49.06
2018-05-18T13:54:30.169Z,49.00
2018-05-18T13:57:02.770Z,48.48
2018-05-18T13:59:36.211Z,48.31
2018-05-18T14:02:08.736Z,48.61
2018-05-18T14:04:41.681Z,48.58
2018-05-18T14:07:14.188Z,48.38
2018-05-18T14:09:46.784Z,48.37
2018-05-18T14:12:19.308Z,48.56
2018-05-18T14:14:51.833Z,48.11
2018-05-18T14:17:24.349Z,48.58
2018-05-18T14:19:56.887Z,47.86
2018-05-18T14:22:29.393Z,47.88
2018-05-18T14:25:01.929Z,47.71
2018-05-18T14:27:34.478Z,47.66
2018-05-18T14:30:07.153Z,47.55
2018-05-18T14:32:39.828Z,47.65
2018-05-18T14:35:12.906Z,47.95
2018-05-18T14:37:45.470Z,48.13
2018-05-18T14:40:17.981Z,47.99
2018-05-18T14:42:50.527Z,47.96
2018-05-18T14:45:23.067Z,47.67
2018-05-18T14:47:55.580Z,48.21
2018-05-18T14:50:28.121Z,48.39
2018-05-18T14:53:00.645Z,48.35
2018-05-18T14:55:33.460Z,48.27
2018-05-18T14:58:06.729Z,47.78
2018-05-18T15:00:39.281Z,48.68
2018-05-18T15:03:12.030Z,48.19
2018-05-18T15:05:44.930Z,48.02
2018-05-18T15:08:17.653Z,47.86
2018-05-18T15:10:50.375Z,47.86
2018-05-18T15:13:22.857Z,48.11
2018-05-18T15:15:55.374Z,47.71
2018-05-18T15:18:27.904Z,48.03
2018-05-18T15:21:00.412Z,47.64
2018-05-18T15:23:32.963Z,47.59
2018-05-18T15:26:05.684Z,47.67
2018-05-18T15:28:38.723Z,47.76
2018-05-18T15:31:11.193Z,47.45
2018-05-18T15:33:44.049Z,47.98
2018-05-18T15:36:16.582Z,47.62
2018-05-18T15:38:49.113Z,47.99
2018-05-18T15:41:21.634Z,48.26
2018-05-18T15:43:54.169Z,48.24
2018-05-18T15:46:26.689Z,47.97
2018-05-18T15:48:59.218Z,47.81
2018-05-18T15:51:31.781Z,48.04
2018-05-18T15:54:04.337Z,48.30
2018-05-18T15:56:37.228Z,48.39
2018-05-18T15:59:09.784Z,48.16
2018-05-18T16:01:42.352Z,47.97
2018-05-18T16:04:14.902Z,48.16
2018-05-18T16:06:47.500Z,47.66
2018-05-18T16:09:20.047Z,48.00
2018-05-18T16:11:52.552Z,47.34
2018-05-18T16:14:25.129Z,47.55
2018-05-18T16:16:57.673Z,47.75
2018-05-18T16:19:30.214Z,47.17
2018-05-18T16:22:02.725Z,47.31
2018-05-18T16:24:35.291Z,47.82
2018-05-18T16:27:07.858Z,47.76
2018-05-18T16:29:40.501Z,47.80
2018-05-18T16:32:13.015Z,47.28
2018-05-18T16:34:45.549Z,47.25
2018-05-18T16:37:18.069Z,47.73
2018-05-18T16:39:50.593Z,47.96
2018-05-18T16:42:23.100Z,48.25
2018-05-18T16:44:55.621Z,48.58
2018-05-18T16:47:28.135Z,48.44
2018-05-18T16:50:00.668Z,48.45
2018-05-18T16:52:33.179Z,48.47
2018-05-18T16:55:05.805Z,48.20
2018-05-18T16:57:38.340Z,48.02
2018-05-18T17:00:10.939Z,47.95
2018-05-18T17:05:22.436Z,47.87
2018-05-18T17:07:54.937Z,47.97
2018-05-18T17:10:27.462Z,47.86
2018-05-18T17:12:59.977Z,47.95
2018-05-18T17:15:32.504Z,48.15
2018-05-18T17:18:05.045Z,47.66
2018-05-18T17:20:37.688Z,47.93
2018-05-18T17:23:10.356Z,47.74
2018-05-18T17:25:42.906Z,47.91
2018-05-18T17:28:15.414Z,47.79
2018-05-18T17:30:47.955Z,48.38
2018-05-18T17:33:20.461Z,48.01
2018-05-18T17:35:52.993Z,48.66
2018-05-18T17:38:25.498Z,48.53
2018-05-18T17:40:58.024Z,48.15
2018-05-18T17:43:30.528Z,48.12
2018-05-18T17:46:03.064Z,48.39
2018-05-18T17:48:35.600Z,48.50
2018-05-18T17:51:08.340Z,48.18
2018-05-18T17:53:40.873Z,48.15
2018-05-18T17:56:13.413Z,48.26
2018-05-18T17:58:45.913Z,48.36
2018-05-18T18:01:18.454Z,48.75
2018-05-18T18:03:51.218Z,48.75
2018-05-18T18:06:23.755Z,48.51
2018-05-18T18:08:56.284Z,48.63
2018-05-18T18:11:28.822Z,48.07
2018-05-18T18:14:01.356Z,48.32
2018-05-18T18:16:33.877Z,48.72
2018-05-18T18:19:07.272Z,48.97
2018-05-18T18:21:39.840Z,48.64
2018-05-18T18:24:12.430Z,48.42
2018-05-18T18:26:44.949Z,49.04
2018-05-18T18:29:17.489Z,49.12
2018-05-18T18:31:50.001Z,49.08
2018-05-18T18:34:22.535Z,49.11
2018-05-18T18:36:55.075Z,49.21
2018-05-18T18:39:27.606Z,49.38
2018-05-18T18:42:00.123Z,49.27
2018-05-18T18:44:32.676Z,49.36
2018-05-18T18:47:06.387Z,49.53
2018-05-18T18:49:38.959Z,49.73
2018-05-18T18:52:11.607Z,49.83
2018-05-18T18:54:44.034Z,50.04
2018-05-18T18:57:16.585Z,50.34
2018-05-18T18:59:49.120Z,50.32
2018-05-18T19:02:21.633Z,50.57
2018-05-18T19:04:54.173Z,50.80
2018-05-18T19:07:26.678Z,51.30
2018-05-18T19:09:59.215Z,51.07
2018-05-18T19:12:31.732Z,51.19
2018-05-18T19:15:04.329Z,51.79
2018-05-18T19:17:37.344Z,51.87
2018-05-18T19:20:09.910Z,51.67
2018-05-18T19:22:42.412Z,52.22
2018-05-18T19:25:14.954Z,52.42
2018-05-18T19:27:47.460Z,52.47
2018-05-18T19:30:19.993Z,52.72
2018-05-18T19:32:52.502Z,52.66
2018-05-18T19:35:25.025Z,52.70
2018-05-18T19:37:57.538Z,52.72
2018-05-18T19:40:30.076Z,52.84
2018-05-18T19:43:02.580Z,52.91
2018-05-18T19:45:35.175Z,53.50
2018-05-18T19:48:07.853Z,53.42
2018-05-18T19:50:40.489Z,53.55
2018-05-18T19:53:13.021Z,54.03
2018-05-18T19:55:45.542Z,53.96
2018-05-18T19:58:18.041Z,54.03
2018-05-18T20:00:50.572Z,54.00
2018-05-18T20:03:23.079Z,54.03
2018-05-18T20:05:55.606Z,54.09
2018-05-18T20:08:28.112Z,54.23
2018-05-18T20:11:00.647Z,54.26
2018-05-18T20:13:33.166Z,54.43
2018-05-18T20:16:05.700Z,54.58
2018-05-18T20:18:38.456Z,54.54
2018-05-18T20:21:11.014Z,54.82
2018-05-18T20:23:43.525Z,54.87
2018-05-18T20:26:16.052Z,55.08
2018-05-18T20:28:48.561Z,55.42
2018-05-18T20:31:21.093Z,55.30
2018-05-18T20:33:53.599Z,55.22
2018-05-18T20:36:26.135Z,55.13
2018-05-18T20:38:58.689Z,55.19
2018-05-18T20:41:31.221Z,55.45
2018-05-18T20:44:03.738Z,55.54
2018-05-18T20:46:36.289Z,55.50
2018-05-18T20:49:08.865Z,55.68
2018-05-18T20:51:41.434Z,55.62
2018-05-18T20:54:13.948Z,55.55
2018-05-18T20:56:46.476Z,55.59
2018-05-18T20:59:18.977Z,55.50
2018-05-18T21:01:51.500Z,55.63
2018-05-18T21:04:24.010Z,55.74
2018-05-18T21:06:56.533Z,55.88
2018-05-18T21:09:29.033Z,55.96
2018-05-18T21:12:01.606Z,55.82
2018-05-18T21:14:34.110Z,55.83
2018-05-18T21:17:07.144Z,55.96
2018-05-18T21:19:39.658Z,56.05
2018-05-18T21:22:12.180Z,56.25
2018-05-18T21:24:44.681Z,56.14
2018-05-18T21:27:17.205Z,56.34
2018-05-18T21:29:49.712Z,56.18
2018-05-18T21:32:22.256Z,56.32
2018-05-18T21:34:54.764Z,56.34
2018-05-18T21:37:27.295Z,56.25
2018-05-18T21:39:59.811Z,56.51
2018-05-18T21:42:32.347Z,56.54
2018-05-18T21:45:05.673Z,56.58
2018-05-18T21:47:38.245Z,56.56
2018-05-18T21:50:10.798Z,56.63
2018-05-18T21:52:43.425Z,56.65
2018-05-18T21:55:15.997Z,56.69
2018-05-18T21:57:48.515Z,56.87
2018-05-18T22:00:21.048Z,56.68
2018-05-18T22:02:53.552Z,56.69
2018-05-18T22:05:26.088Z,56.79
2018-05-18T22:07:58.590Z,56.80
2018-05-18T22:10:31.131Z,56.86
2018-05-18T22:13:03.643Z,56.84
2018-05-18T22:15:36.549Z,56.88
2018-05-18T22:18:09.108Z,56.87
2018-05-18T22:20:41.646Z,57.19
2018-05-18T22:23:14.194Z,57.25
2018-05-18T22:25:46.772Z,57.19
2018-05-18T22:28:19.289Z,57.14
2018-05-18T22:30:51.831Z,57.14
2018-05-18T22:33:24.356Z,56.97
2018-05-18T22:35:57.040Z,57.04
2018-05-18T22:38:29.516Z,57.18
2018-05-18T22:41:02.121Z,57.16
2018-05-18T22:43:35.185Z,57.06
2018-05-18T22:46:08.027Z,57.20
2018-05-18T22:48:40.597Z,57.10
2018-05-18T22:51:13.194Z,57.01
2018-05-18T22:53:45.763Z,57.02
2018-05-18T22:56:18.395Z,57.08
2018-05-18T22:58:50.954Z,56.84
2018-05-18T23:01:23.487Z,56.53
2018-05-18T23:03:55.998Z,56.52
2018-05-18T23:06:28.525Z,56.53
2018-05-18T23:09:01.051Z,56.88
2018-05-18T23:11:33.657Z,57.06
2018-05-18T23:14:06.443Z,57.17
2018-05-18T23:16:39.060Z,57.07
2018-05-18T23:19:11.585Z,57.20
2018-05-18T23:21:44.344Z,57.19
2018-05-18T23:24:16.849Z,57.36
2018-05-18T23:26:49.373Z,57.35
2018-05-18T23:29:21.868Z,57.31
2018-05-18T23:31:54.486Z,57.33
2018-05-18T23:34:26.948Z,57.21
2018-05-18T23:36:59.477Z,57.20
2018-05-18T23:39:32.038Z,57.34
2018-05-18T23:42:04.675Z,57.26
2018-05-18T23:44:38.292Z,57.48
2018-05-18T23:47:10.938Z,57.47
2018-05-18T23:49:43.493Z,57.26
2018-05-18T23:52:16.075Z,57.28
2018-05-18T23:54:48.616Z,57.18
2018-05-18T23:57:26.678Z,57.04
2018-05-18T23:59:59.194Z,56.87
